LFML Airport Information

Runway Information
Runway 13L Length 11483 ft width 148 ft
Elevation 8 ft Threshold 1116 ft Heading 134
Runway 31R Length 11483 ft Width 148 ft
Elevation 53 ft Threshold 2165 ft Heading 314
Runway 13R Length 7776 ft width 148 ft
Elevation 8 ft Threshold 0 ft Heading 134
Runway 31L Length 7776 ft Width 148 ft
Elevation 61 ft Threshold 345 ft Heading 314
Airport Frequencies
Type APP Name APP/RADAR Frequency 120.2 MHZ
Type ATIS Name ATIS Frequency 125.35 MHZ
Type GND Name GND Frequency 121.9 MHZ
Type INFO Name INFO Frequency 118.85 MHZ
Type PFLT Name PERFLIGHT Frequency 121.725 MHZ
Type TWR Name TWR Frequency 118.375 MHZ
Airport Navaids
Type VOR-DME Name Marseille/Provence Frequency 108800 KHZ
Airport Weather Information & NOTAM
ADDS - METARS form results

(0218 UTC 22 January 2019)
Data provider http://aviationweather.gov/metar/data/
 
METAR text: LFML 220200Z AUTO 31010KT CAVOK 01/00 Q1014 NOSIG
Conditions at: LFML (MARSEILLE/MARIGN, FR) observed 0200 UTC 22 January 2019
Temperature: 1.0°C (34°F)
Dewpoint: 0.0°C (32°F) [RH = 93%]
Pressure (altimeter): 29.94 inches Hg (1014.0 mb)
Winds: from the NW (310 degrees) at 12 MPH (10 knots; 5.1 m/s)
Visibility: 6 or more miles (10+ km)
Ceiling: ceiling and visibility are OK
Clouds: unknown
Weather: no significant weather observed at this time

METAR text: LFML 220130Z AUTO 34005KT CAVOK M00/M02 Q1014 NOSIG
Conditions at: LFML (MARSEILLE/MARIGN, FR) observed 0130 UTC 22 January 2019
Temperature: 0.0°C (32°F)
Dewpoint: -2.0°C (28°F) [RH = 86%]
Pressure (altimeter): 29.94 inches Hg (1014.0 mb)
Winds: from the NNW (340 degrees) at 6 MPH (5 knots; 2.6 m/s)
Visibility: 6 or more miles (10+ km)
Ceiling: ceiling and visibility are OK
Clouds: unknown
Weather: no significant weather observed at this time

Forecast for: LFML (MARSEILLE/MARIGN, FR)
Text: TAF LFML 212000Z 2121/2303 32010KT CAVOK TX08/2214Z TN01/2205Z
Forecast period: 2100 UTC 21 January 2019 to 1800 UTC 22 January 2019
Forecast type: FROM: standard forecast or significant change
Winds: from the NW (320 degrees) at 12 MPH (10 knots; 5.1 m/s)
Visibility: 6 or more miles 10+ km)
Ceiling: unknown
Clouds: missing
Weather: no significant weather forecast for this period
Text: BECMG 2218/2220 VRB03KT
Forecast period: 1800 UTC 22 January 2019 to 0300 UTC 23 January 2019
Forecast type: BECOMING: Conditions expected to become as follows by 2000 UTC 22 January 2019
Winds: variable direction winds at 3 MPH (3 knots; 1.5 m/s)
Visibility: 6 or more miles 10+ km)
Ceiling: unknown
Clouds: missing
Weather: no significant weather forecast for this period